Time;durP1;ratioP1;P1;durP2;ratioP2;P2;SDS_P1;SDS_P2;PMS_P1;PMS_P2;Temp;Humidity;BMP_temperature;BMP_pressure;BME280_temperature;BME280_humidity;BME280_pressure;Samples;Min_cycle;Max_cycle;Signal;HPM_P1;HPM_P2
2022/08/29 00:02:21;;;;;;;5.75;4.45;;;16.00;99.90;;;15.75;100.00;97448.81;4951212;28;20538;-47
2022/08/29 00:04:47;;;;;;;6.22;4.60;;;16.00;99.90;;;15.72;100.00;97442.78;4955303;28;20089;-48
2022/08/29 00:07:13;;;;;;;5.53;4.30;;;15.90;99.90;;;15.66;100.00;97441.31;4954785;28;20072;-44
2022/08/29 00:09:39;;;;;;;5.28;4.28;;;15.90;99.90;;;15.64;100.00;97444.06;4958677;28;20030;-44
2022/08/29 00:12:05;;;;;;;6.50;4.55;;;15.90;99.90;;;15.68;100.00;97443.91;4947079;28;20161;-46
2022/08/29 00:14:31;;;;;;;5.28;4.53;;;15.90;99.90;;;15.63;100.00;97450.34;4952437;28;20034;-47
2022/08/29 00:16:57;;;;;;;6.38;4.38;;;15.90;99.90;;;15.62;100.00;97448.63;4953111;28;20129;-44
2022/08/29 00:19:22;;;;;;;6.60;4.68;;;15.80;99.90;;;15.59;100.00;97447.94;4959759;28;20031;-47
2022/08/29 00:21:48;;;;;;;6.38;5.18;;;15.80;99.90;;;15.58;100.00;97452.41;4956668;28;20494;-43
2022/08/29 00:24:14;;;;;;;5.75;5.10;;;15.80;99.90;;;15.58;100.00;97456.88;4955793;28;20517;-44
2022/08/29 00:26:40;;;;;;;6.63;5.05;;;15.80;99.90;;;15.58;100.00;97457.72;4962008;28;20287;-46
2022/08/29 00:29:06;;;;;;;6.32;5.15;;;15.80;99.90;;;15.59;100.00;97461.22;4961020;28;20085;-47
2022/08/29 00:31:32;;;;;;;7.32;5.10;;;15.70;99.90;;;15.58;100.00;97457.72;4951599;28;23493;-46
2022/08/29 00:33:58;;;;;;;5.82;4.97;;;15.80;99.90;;;15.56;100.00;97458.72;4953708;28;20030;-46
2022/08/29 00:36:25;;;;;;;6.50;4.95;;;15.80;99.90;;;15.53;100.00;97456.25;4952307;28;20034;-44
2022/08/29 00:38:51;;;;;;;6.38;4.93;;;15.70;99.90;;;15.49;100.00;97452.03;4959280;28;20514;-46
2022/08/29 00:41:17;;;;;;;8.18;5.50;;;15.70;99.90;;;15.42;100.00;97444.44;4951998;28;20050;-45
2022/08/29 00:43:42;;;;;;;7.63;5.18;;;15.60;99.90;;;15.43;100.00;97453.25;4956034;28;20181;-45
2022/08/29 00:46:42;;;;;;;6.43;5.28;;;15.60;99.90;;;15.41;100.00;97452.47;4953966;28;20046;-48
2022/08/29 00:49:23;;;;;;;5.63;4.60;;;15.60;99.90;;;15.40;100.00;97453.44;4956349;28;20149;-47
2022/08/29 00:51:50;;;;;;;6.25;5.00;;;15.60;99.90;;;15.35;100.00;97453.69;4955982;28;20042;-46
2022/08/29 00:54:15;;;;;;;5.57;4.63;;;15.50;99.90;;;15.34;100.00;97457.25;4952239;28;20042;-47
2022/08/29 00:56:44;;;;;;;6.13;4.65;;;15.50;99.90;;;15.30;100.00;97463.69;4966892;28;20046;-48
2022/08/29 00:59:16;;;;;;;6.60;5.20;;;15.50;99.90;;;15.27;100.00;97459.44;4965491;28;20302;-45
2022/08/29 01:01:43;;;;;;;;;;;15.50;99.90;;;15.24;100.00;97462.25;4960742;28;20286;-45
2022/08/29 01:04:09;;;;;;;7.38;5.30;;;15.50;99.90;;;15.24;100.00;97474.69;4952852;28;19928;-47
2022/08/29 01:06:37;;;;;;;7.22;5.15;;;15.50;99.90;;;15.22;100.00;97473.91;4957467;28;20039;-47
2022/08/29 01:09:04;;;;;;;6.72;4.80;;;15.40;99.90;;;15.18;100.00;97470.56;4957850;28;20117;-44
2022/08/29 01:14:19;;;;;;;6.38;5.03;;;15.40;99.90;;;15.10;100.00;97472.75;4960802;28;20038;-44
2022/08/29 01:16:47;;;;;;;7.47;5.18;;;15.30;99.90;;;15.05;100.00;97464.19;4955722;28;20295;-44
2022/08/29 01:19:27;;;;;;;6.75;4.78;;;15.30;99.90;;;15.06;100.00;97477.38;4977209;28;20101;-44
2022/08/29 01:22:07;;;;;;;5.78;5.10;;;15.30;99.90;;;15.03;100.00;97469.56;4962063;28;20042;-45
2022/08/29 01:24:42;;;;;;;5.72;5.00;;;15.30;99.90;;;15.01;100.00;97467.94;4957763;28;20046;-45
2022/08/29 01:27:11;;;;;;;7.30;4.95;;;15.20;99.90;;;14.99;100.00;97467.19;4952394;28;20035;-47
2022/08/29 01:29:37;;;;;;;6.15;4.82;;;15.20;99.90;;;14.98;100.00;97468.09;4954944;28;20046;-48
2022/08/29 01:32:04;;;;;;;6.68;5.13;;;15.30;99.90;;;14.98;100.00;97474.25;4952687;28;20039;-45
2022/08/29 01:34:30;;;;;;;5.80;5.10;;;15.30;99.90;;;14.97;100.00;97474.38;4953776;28;20126;-48
2022/08/29 01:37:01;;;;;;;6.28;5.03;;;15.30;99.90;;;14.96;100.00;97470.84;4958791;28;20050;-46
2022/08/29 01:39:34;;;;;;;6.90;5.43;;;15.20;99.90;;;14.92;100.00;97471.94;4954305;28;20022;-46
2022/08/29 01:42:09;;;;;;;6.43;5.53;;;15.10;99.90;;;14.89;100.00;97473.00;4955043;28;20482;-44
2022/08/29 01:44:36;;;;;;;6.65;5.15;;;15.10;99.90;;;14.90;100.00;97468.53;4960357;28;20038;-48
2022/08/29 01:47:04;;;;;;;7.20;5.55;;;15.10;99.90;;;14.91;100.00;97472.88;4962396;28;20657;-45
2022/08/29 01:49:33;;;;;;;7.38;5.70;;;15.10;99.90;;;14.89;100.00;97480.06;4958586;28;20097;-48
2022/08/29 01:52:01;;;;;;;6.53;5.03;;;15.10;99.90;;;14.86;100.00;97475.81;4959411;28;20033;-45
2022/08/29 01:54:27;;;;;;;7.70;5.30;;;15.10;99.90;;;14.85;100.00;97473.22;4958449;28;20502;-46
2022/08/29 01:56:53;;;;;;;7.88;5.25;;;15.10;99.90;;;14.79;100.00;97474.41;4960095;28;20030;-46
2022/08/29 01:59:25;;;;;;;6.88;5.13;;;15.10;99.90;;;14.79;100.00;97473.56;4961413;28;20022;-45
2022/08/29 02:01:58;;;;;;;5.68;5.07;;;15.00;99.90;;;14.74;100.00;97471.13;4962253;28;20507;-45
2022/08/29 02:04:24;;;;;;;7.38;5.35;;;15.00;99.90;;;14.74;100.00;97478.25;4954494;28;20312;-47
2022/08/29 02:06:50;;;;;;;6.45;5.47;;;15.00;99.90;;;14.70;100.00;97472.25;4960412;28;20108;-46
2022/08/29 02:09:16;;;;;;;7.13;5.53;;;14.90;99.90;;;14.67;100.00;97480.34;4954192;28;20107;-47
2022/08/29 02:11:43;;;;;;;7.43;5.55;;;14.90;99.90;;;14.61;100.00;97475.38;4988793;23;20049;-46
2022/08/29 02:14:09;;;;;;;8.98;5.70;;;14.80;99.90;;;14.55;100.00;97476.50;4990485;28;20069;-45
2022/08/29 02:16:35;;;;;;;6.03;5.43;;;14.80;99.90;;;14.51;100.00;97478.44;4991460;28;20136;-49
2022/08/29 02:19:00;;;;;;;7.28;5.57;;;14.80;99.90;;;14.46;100.00;97483.16;4993384;28;20549;-47
2022/08/29 02:21:28;;;;;;;5.93;5.03;;;14.70;99.90;;;14.39;100.00;97471.16;4999559;28;20041;-50
2022/08/29 02:23:57;;;;;;;6.50;4.68;;;14.70;99.90;;;14.42;100.00;97488.69;5003407;28;20041;-45
2022/08/29 02:26:23;;;;;;;7.55;5.45;;;14.60;99.90;;;14.26;100.00;97454.97;5000591;28;20452;-48
2022/08/29 02:28:50;;;;;;;7.75;5.07;;;14.60;99.90;;;14.40;100.00;97479.97;5002542;28;20462;-48
2022/08/29 02:31:18;;;;;;;6.75;5.38;;;14.60;99.90;;;14.36;100.00;97473.94;5001632;28;20026;-49
2022/08/29 02:33:43;;;;;;;6.15;5.22;;;14.60;99.90;;;14.34;100.00;97473.19;4989366;28;20034;-50
2022/08/29 02:36:09;;;;;;;9.38;5.45;;;14.60;99.90;;;14.31;100.00;97474.16;4984295;28;20750;-49
2022/08/29 02:38:35;;;;;;;6.35;5.15;;;14.60;99.90;;;14.30;100.00;97471.59;4995657;28;20049;-49
2022/08/29 02:41:01;;;;;;;7.25;5.97;;;14.60;99.90;;;14.30;100.00;97472.47;4992215;28;20034;-51
2022/08/29 02:43:27;;;;;;;7.07;5.80;;;14.50;99.90;;;14.29;100.00;97467.25;4993902;28;20132;-50
2022/08/29 02:45:53;;;;;;;7.88;5.47;;;14.50;99.90;;;14.26;100.00;97464.72;4988270;28;20060;-49
2022/08/29 02:48:20;;;;;;;8.38;6.22;;;14.50;99.90;;;14.24;100.00;97471.91;4994056;28;20510;-46
2022/08/29 02:50:52;;;;;;;9.13;6.65;;;14.50;99.90;;;14.22;100.00;97464.03;4990018;28;20036;-48
2022/08/29 02:53:22;;;;;;;8.32;6.00;;;14.50;99.90;;;14.23;100.00;97464.88;4987901;28;20026;-47
2022/08/29 02:55:50;;;;;;;7.93;6.03;;;14.50;99.90;;;14.24;100.00;97469.25;4991838;28;20497;-49
2022/08/29 02:58:17;;;;;;;10.80;6.60;;;14.50;99.90;;;14.23;100.00;97465.75;4999006;28;20205;-51
2022/08/29 03:00:43;;;;;;;7.60;5.78;;;14.50;99.90;;;14.22;100.00;97468.47;4994844;28;20088;-49
2022/08/29 03:03:10;;;;;;;6.53;5.72;;;14.50;99.90;;;14.19;100.00;97465.97;4989618;28;20045;-47
2022/08/29 03:05:36;;;;;;;8.57;5.68;;;14.50;99.90;;;14.14;100.00;97460.94;4993988;28;20034;-48
2022/08/29 03:08:06;;;;;;;8.82;5.78;;;14.40;99.90;;;14.12;100.00;97463.66;4993078;28;20038;-50
2022/08/29 03:10:32;;;;;;;7.40;5.40;;;14.40;99.90;;;14.08;100.00;97461.22;4988942;28;20065;-48
2022/08/29 03:12:58;;;;;;;6.28;5.30;;;14.40;99.90;;;14.00;100.00;97458.06;4993446;28;20032;-47
2022/08/29 03:15:24;;;;;;;10.02;5.45;;;14.30;99.90;;;14.02;100.00;97467.69;4990705;28;20030;-46
2022/08/29 03:17:50;;;;;;;5.60;5.00;;;14.30;99.90;;;13.99;100.00;97473.13;4992471;28;20026;-47
2022/08/29 03:20:19;;;;;;;9.32;5.78;;;14.20;99.90;;;13.98;100.00;97462.59;4991445;28;20306;-48
2022/08/29 03:22:45;;;;;;;9.25;6.18;;;14.20;99.90;;;13.95;100.00;97455.66;4991052;28;20029;-49
2022/08/29 03:25:13;;;;;;;10.23;6.47;;;14.20;99.90;;;13.93;100.00;97457.53;4989839;28;20124;-49
2022/08/29 03:27:39;;;;;;;7.13;5.53;;;14.20;99.90;;;13.87;100.00;97463.13;4992399;28;20037;-46
2022/08/29 03:30:11;;;;;;;7.55;5.82;;;14.20;99.90;;;13.87;100.00;97458.72;4985869;28;20080;-49
2022/08/29 03:32:38;;;;;;;7.82;6.03;;;14.10;99.90;;;13.87;100.00;97461.38;4981136;28;20025;-49
2022/08/29 03:35:05;;;;;;;6.53;5.40;;;14.10;99.90;;;13.83;100.00;97462.41;4985170;28;20405;-48
2022/08/29 03:37:31;;;;;;;7.30;5.63;;;14.10;99.90;;;13.82;100.00;97466.03;4992493;28;20085;-47
2022/08/29 03:39:57;;;;;;;8.50;5.82;;;14.10;99.90;;;13.83;100.00;97461.56;4990848;28;20035;-49
2022/08/29 03:42:23;;;;;;;8.90;5.88;;;14.10;99.90;;;13.80;100.00;97464.38;4991647;28;20454;-48
2022/08/29 03:44:49;;;;;;;7.47;5.40;;;14.10;99.90;;;13.79;100.00;97474.13;4996104;28;20694;-48
2022/08/29 03:47:14;;;;;;;7.55;5.72;;;14.10;99.90;;;13.77;100.00;97468.03;4992205;28;20377;-48
2022/08/29 03:49:40;;;;;;;9.40;6.05;;;14.10;99.90;;;13.76;100.00;97474.25;4995000;28;20049;-50
2022/08/29 03:52:08;;;;;;;8.10;5.55;;;14.00;99.90;;;13.74;100.00;97476.97;4986333;28;20486;-49
2022/08/29 03:54:35;;;;;;;8.52;5.40;;;14.00;99.90;;;13.70;100.00;97479.88;4981476;28;20512;-49
2022/08/29 03:57:03;;;;;;;6.78;5.15;;;14.00;99.90;;;13.69;100.00;97483.44;4986140;28;20555;-50
2022/08/29 03:59:30;;;;;;;8.52;5.63;;;14.00;99.90;;;13.70;100.00;97482.53;4986149;28;20046;-47
2022/08/29 04:01:57;;;;;;;9.63;5.88;;;14.00;99.90;;;13.69;100.00;97479.03;4990201;28;20112;-48
2022/08/29 04:07:11;;;;;;;8.18;5.90;;;14.00;99.90;;;13.66;100.00;97471.22;4992828;28;20405;-50
2022/08/29 04:09:37;;;;;;;10.38;5.47;;;14.00;99.90;;;13.66;100.00;97475.66;4979287;28;20030;-50
2022/08/29 04:12:03;;;;;;;7.88;5.18;;;13.90;99.90;;;13.66;100.00;97473.00;4983493;28;20497;-48
2022/08/29 04:14:29;;;;;;;10.05;5.10;;;13.90;99.90;;;13.62;100.00;97474.94;4987762;28;20030;-49
2022/08/29 04:16:55;;;;;;;6.70;5.25;;;13.90;99.90;;;13.58;100.00;97477.81;4991450;28;20536;-49
2022/08/29 04:19:21;;;;;;;6.97;5.28;;;13.90;99.90;;;13.49;100.00;97464.03;4989367;28;20405;-46
2022/08/29 04:21:50;;;;;;;8.65;5.63;;;13.90;99.90;;;13.58;100.00;97477.81;4991888;28;20056;-50
2022/08/29 04:24:18;;;;;;;8.65;5.35;;;13.90;99.90;;;13.55;100.00;97489.41;4990695;28;20034;-48
2022/08/29 04:26:44;;;;;;;7.45;5.45;;;13.80;99.90;;;13.53;100.00;97480.66;4994878;28;20128;-50
2022/08/29 04:29:12;;;;;;;7.05;5.60;;;13.80;99.90;;;13.55;100.00;97486.78;4994201;28;20496;-50
2022/08/29 04:31:40;;;;;;;11.32;5.13;;;13.90;99.90;;;13.55;100.00;97494.72;4994562;28;20038;-49
2022/08/29 04:34:09;;;;;;;12.30;5.53;;;13.90;99.90;;;13.50;100.00;97491.44;4981434;28;20026;-49
2022/08/29 04:36:40;;;;;;;8.40;5.60;;;13.80;99.90;;;13.55;100.00;97498.22;4987063;28;20034;-49
2022/08/29 04:39:08;;;;;;;8.57;6.13;;;13.90;99.90;;;13.54;100.00;97493.84;4985322;28;20038;-50
2022/08/29 04:41:35;;;;;;;9.07;5.40;;;13.90;99.90;;;13.54;100.00;97496.50;4991864;28;20095;-48
2022/08/29 04:44:02;;;;;;;6.78;5.10;;;13.90;99.90;;;13.53;100.00;97496.56;4995122;28;20029;-50
2022/08/29 04:46:28;;;;;;;8.70;4.85;;;13.90;99.90;;;13.48;100.00;97488.00;4994296;28;20462;-49
2022/08/29 04:48:54;;;;;;;8.93;5.00;;;13.80;99.90;;;13.51;100.00;97494.00;4983768;28;20084;-49
2022/08/29 04:51:21;;;;;;;8.80;4.90;;;13.80;99.90;;;13.51;100.00;97499.31;4983868;28;20029;-50
2022/08/29 04:53:49;;;;;;;9.43;5.20;;;13.80;99.90;;;13.53;100.00;97493.91;4989263;28;20489;-47
2022/08/29 04:56:14;;;;;;;6.88;4.50;;;13.80;99.90;;;13.41;100.00;97478.63;4992866;28;20072;-49
2022/08/29 04:58:42;;;;;;;7.60;4.50;;;13.80;99.90;;;13.56;100.00;97497.28;5010784;28;20041;-49
2022/08/29 05:01:12;;;;;;;9.02;5.05;;;13.80;99.90;;;13.58;100.00;97505.16;4994589;28;20053;-48
2022/08/29 05:03:38;;;;;;;7.30;4.90;;;13.90;99.90;;;13.60;100.00;97500.63;4994283;28;20044;-49
2022/08/29 05:06:07;;;;;;;6.93;4.90;;;13.90;99.90;;;13.63;100.00;97507.59;4992591;28;20393;-51
2022/08/29 05:08:36;;;;;;;8.23;4.80;;;13.90;99.90;;;13.65;100.00;97503.94;4994157;28;20145;-49
2022/08/29 05:11:03;;;;;;;9.23;4.80;;;13.90;99.90;;;13.68;100.00;97511.75;4983761;28;20117;-50
2022/08/29 05:13:29;;;;;;;6.57;4.65;;;14.00;99.90;;;13.58;100.00;97499.00;4992320;28;20033;-49
2022/08/29 05:15:55;;;;;;;8.80;4.75;;;14.00;99.90;;;13.74;100.00;97516.72;4996368;28;20481;-48
2022/08/29 05:18:22;;;;;;;7.97;5.00;;;14.00;99.90;;;13.78;100.00;97519.25;4998044;28;20037;-49
2022/08/29 05:20:48;;;;;;;5.97;4.60;;;14.10;99.90;;;13.87;100.00;97526.75;4989646;28;20422;-47
2022/08/29 05:23:16;;;;;;;6.40;4.80;;;14.20;99.90;;;13.93;100.00;97519.38;4998698;28;20027;-51
2022/08/29 05:25:43;;;;;;;6.57;4.70;;;14.20;99.90;;;13.98;100.00;97512.97;4996512;28;20038;-50
2022/08/29 05:28:11;;;;;;;6.20;5.00;;;14.30;99.90;;;14.02;100.00;97520.72;4999761;28;20105;-48
2022/08/29 05:30:38;;;;;;;7.15;5.07;;;14.30;99.90;;;14.05;100.00;97517.94;4987087;28;20042;-51
2022/08/29 05:33:06;;;;;;;6.60;4.32;;;14.30;99.90;;;14.11;100.00;97519.41;4994156;28;20026;-46
2022/08/29 05:35:33;;;;;;;5.57;4.50;;;14.40;99.90;;;14.15;100.00;97518.31;4997339;28;20037;-49
2022/08/29 05:38:01;;;;;;;7.18;4.88;;;14.40;99.90;;;14.19;100.00;97511.91;4997054;28;20038;-50
2022/08/29 05:40:27;;;;;;;6.75;4.75;;;14.50;99.90;;;14.24;100.00;97509.06;4996672;28;20034;-49
2022/08/29 05:42:54;;;;;;;6.70;4.38;;;14.50;99.90;;;14.30;100.00;97520.22;4999832;28;20108;-50
2022/08/29 05:45:19;;;;;;;7.22;4.40;;;14.60;99.90;;;14.37;100.00;97519.91;4994524;28;20081;-50
2022/08/29 05:47:45;;;;;;;6.20;4.30;;;14.60;99.90;;;14.43;100.00;97514.31;4995832;28;20539;-48
2022/08/29 05:50:12;;;;;;;8.02;4.60;;;14.70;99.90;;;14.45;100.00;97507.13;4991615;28;20475;-51
2022/08/29 05:52:40;;;;;;;6.88;4.72;;;14.80;99.90;;;14.57;100.00;97519.75;4991921;28;21880;-49
2022/08/29 05:55:06;;;;;;;7.35;4.85;;;14.90;99.90;;;14.65;100.00;97522.06;4991444;28;20030;-48
2022/08/29 05:57:32;;;;;;;6.18;4.07;;;15.00;99.90;;;14.73;100.00;97530.47;4990427;28;20058;-48
2022/08/29 05:59:57;;;;;;;5.25;4.20;;;15.00;99.90;;;14.81;100.00;97524.78;4995603;28;20034;-48
2022/08/29 06:02:24;;;;;;;7.55;4.13;;;15.10;99.90;;;14.87;100.00;97529.75;4996413;28;20026;-50
2022/08/29 06:04:49;;;;;;;7.78;4.63;;;15.20;99.90;;;14.94;100.00;97528.50;4990669;28;20348;-48
2022/08/29 06:07:16;;;;;;;7.28;4.43;;;15.30;99.90;;;15.06;100.00;97540.28;4998970;28;20041;-51
2022/08/29 06:09:43;;;;;;;6.30;4.35;;;15.40;99.90;;;15.14;100.00;97550.50;4996180;28;20034;-51
2022/08/29 06:12:11;;;;;;;8.15;4.63;;;15.50;99.90;;;15.23;100.00;97547.34;4987072;28;20033;-49
2022/08/29 06:14:37;;;;;;;6.97;4.60;;;15.50;99.90;;;15.34;100.00;97549.41;4985638;28;20033;-51
2022/08/29 06:17:05;;;;;;;6.28;4.22;;;15.60;99.90;;;15.40;100.00;97544.63;4987655;28;20469;-51
2022/08/29 06:19:33;;;;;;;4.80;3.70;;;15.70;99.90;;;15.45;100.00;97552.34;4988231;28;20022;-48
2022/08/29 06:22:02;;;;;;;6.18;4.03;;;15.80;99.90;;;15.54;100.00;97557.19;5001666;28;20556;-51
2022/08/29 06:24:29;;;;;;;8.27;4.20;;;15.80;99.90;;;15.55;100.00;97548.25;4989739;28;22256;-51
2022/08/29 06:26:56;;;;;;;6.93;3.80;;;15.90;99.90;;;15.65;100.00;97553.94;4991169;28;20783;-49
2022/08/29 06:29:22;;;;;;;9.00;4.05;;;16.00;99.90;;;15.72;100.00;97552.66;4992669;28;20026;-51
2022/08/29 06:31:48;;;;;;;7.05;4.13;;;16.00;99.90;;;15.79;100.00;97556.72;4991159;28;20514;-50
2022/08/29 06:34:13;;;;;;;12.00;5.00;;;16.10;99.90;;;15.84;100.00;97556.47;4993581;28;20030;-50
2022/08/29 06:36:39;;;;;;;7.82;4.05;;;16.10;99.90;;;15.91;100.00;97562.31;4995169;28;20045;-49
2022/08/29 06:39:08;;;;;;;9.25;4.13;;;16.20;99.90;;;15.96;100.00;97563.75;4995593;28;20061;-51
2022/08/29 06:41:37;;;;;;;6.05;4.63;;;16.30;99.90;;;16.01;100.00;97561.69;4993413;28;20026;-49
2022/08/29 06:44:03;;;;;;;6.95;4.28;;;16.30;99.90;;;16.08;100.00;97559.56;4999011;28;20064;-49
2022/08/29 06:46:42;;;;;;;5.63;3.85;;;16.40;99.90;;;16.16;100.00;97567.94;4995170;28;20453;-50
2022/08/29 06:49:12;;;;;;;9.93;4.15;;;16.40;99.90;;;16.22;100.00;97567.63;4990948;28;20494;-47
2022/08/29 06:51:42;;;;;;;6.85;4.30;;;16.50;99.90;;;16.28;100.00;97571.72;4988477;28;20486;-48
2022/08/29 06:54:10;;;;;;;6.97;4.28;;;16.60;99.90;;;16.40;100.00;97571.03;4992011;28;20092;-47
2022/08/29 06:56:37;;;;;;;7.80;4.70;;;16.60;99.90;;;16.48;100.00;97570.56;4994452;28;20026;-48
2022/08/29 06:59:04;;;;;;;10.60;5.40;;;16.70;99.90;;;16.55;100.00;97574.59;4994592;28;20048;-47
2022/08/29 07:01:30;;;;;;;6.22;5.35;;;16.80;99.90;;;16.66;100.00;97560.66;4993394;28;20033;-48
2022/08/29 07:03:56;;;;;;;7.47;5.43;;;16.90;99.90;;;16.73;100.00;97561.16;5006123;28;20377;-50
2022/08/29 07:06:23;;;;;;;11.18;5.50;;;17.00;99.90;;;16.80;100.00;97565.16;4995454;28;20034;-48
2022/08/29 07:08:50;;;;;;;6.13;4.22;;;17.10;99.90;;;16.88;100.00;97562.91;4989326;28;20076;-50
2022/08/29 07:11:17;;;;;;;6.97;4.80;;;17.20;99.90;;;16.97;100.00;97572.16;4988251;28;20057;-50
2022/08/29 07:13:42;;;;;;;10.20;4.68;;;17.20;99.90;;;17.06;100.00;97578.75;4990635;28;20148;-47
2022/08/29 07:16:13;;;;;;;7.70;5.30;;;17.30;99.90;;;17.16;100.00;97582.56;4997942;28;20030;-51
2022/08/29 07:18:39;;;;;;;7.57;4.70;;;17.40;99.90;;;17.23;100.00;97580.38;4996538;28;20450;-48
2022/08/29 07:21:07;;;;;;;6.65;4.50;;;17.50;99.90;;;17.31;100.00;97575.44;5001402;28;20077;-48
2022/08/29 07:23:34;;;;;;;5.97;4.28;;;17.60;99.90;;;17.39;100.00;97577.63;4981403;28;20049;-41
2022/08/29 07:26:17;;;;;;;7.90;4.97;;;17.70;99.90;;;17.53;100.00;97583.84;4982055;28;20092;-51
2022/08/29 07:28:49;;;;;;;9.15;6.07;;;17.80;99.90;;;17.57;100.00;97584.50;4996714;28;20041;-51
2022/08/29 07:31:15;;;;;;;;;;;17.90;99.90;;;17.65;100.00;97584.03;4995892;28;20070;-50
2022/08/29 07:33:41;;;;;;;8.80;5.68;;;17.90;99.90;;;17.80;100.00;97584.84;4979507;28;20024;-47
2022/08/29 07:36:07;;;;;;;9.30;5.20;;;18.00;99.90;;;17.92;100.00;97586.78;5007133;28;20036;-50
2022/08/29 07:38:34;;;;;;;8.90;5.75;;;18.20;99.90;;;18.01;100.00;97588.00;4994908;28;20045;-47
2022/08/29 07:41:10;;;;;;;14.32;5.35;;;18.20;99.90;;;18.17;100.00;97590.56;5001060;28;20053;-51
2022/08/29 07:43:36;;;;;;;8.85;5.72;;;18.40;99.90;;;18.29;100.00;97597.75;4995067;28;20030;-47
2022/08/29 07:46:20;;;;;;;8.02;5.13;;;18.50;99.90;;;18.46;100.00;97597.50;4984951;28;20535;-51
2022/08/29 07:48:46;;;;;;;6.25;4.25;;;18.60;99.90;;;18.65;100.00;97598.97;4988303;28;20064;-51
2022/08/29 07:51:16;;;;;;;7.40;5.40;;;18.80;99.90;;;18.77;98.05;97598.16;4984398;28;20458;-48
2022/08/29 07:53:42;;;;;;;10.00;4.63;;;18.90;99.90;;;18.93;98.89;97597.13;4991732;28;20037;-50
2022/08/29 07:56:12;;;;;;;11.52;5.72;;;19.10;99.90;;;19.03;95.96;97587.53;4989668;28;20056;-52
2022/08/29 07:58:40;;;;;;;8.10;5.05;;;19.20;99.90;;;19.15;95.57;97589.38;4985616;28;20036;-51
2022/08/29 08:01:07;;;;;;;10.43;6.03;;;19.30;99.90;;;19.13;92.09;97585.97;4991106;28;20034;-48
2022/08/29 08:03:33;;;;;;;8.25;5.07;;;19.40;99.90;;;19.22;92.77;97590.66;4992426;28;20038;-49
2022/08/29 08:06:01;;;;;;;13.30;5.43;;;19.40;99.90;;;19.32;92.98;97590.03;4997729;28;20092;-52
2022/08/29 08:08:27;;;;;;;11.07;5.63;;;19.50;99.90;;;19.47;92.72;97591.66;4989328;28;20164;-52
2022/08/29 08:10:52;;;;;;;6.53;5.20;;;19.60;99.90;;;19.59;92.63;97588.06;4984440;28;20462;-53
2022/08/29 08:13:19;;;;;;;8.25;5.13;;;19.70;99.90;;;19.69;92.69;97592.81;4983767;22;20046;-43
2022/08/29 08:15:45;;;;;;;8.20;5.00;;;19.90;99.90;;;19.84;91.74;97597.91;4958848;28;20030;-44
2022/08/29 08:18:11;;;;;;;8.90;5.43;;;20.00;99.90;;;19.94;91.03;97594.63;4954092;28;20046;-43
2022/08/29 08:20:36;;;;;;;9.43;6.07;;;20.10;99.90;;;19.99;86.97;97595.13;4966095;28;20113;-43
2022/08/29 08:23:03;;;;;;;5.88;4.72;;;20.10;99.90;;;20.12;88.24;97597.78;4959188;28;20526;-48
2022/08/29 08:25:28;;;;;;;7.82;4.63;;;20.30;99.90;;;20.26;87.96;97604.78;4952608;28;20066;-45
2022/08/29 08:27:54;;;;;;;8.43;4.72;;;20.40;99.90;;;20.38;87.12;97591.34;4949846;28;20031;-44
2022/08/29 08:30:20;;;;;;;6.78;4.82;;;20.50;99.90;;;20.51;86.90;97604.72;4951943;28;20049;-47
2022/08/29 08:32:47;;;;;;;8.07;5.25;;;20.60;99.90;;;20.61;85.64;97602.22;4954270;28;20031;-45
2022/08/29 08:35:14;;;;;;;7.28;5.15;;;20.70;99.90;;;20.71;85.67;97592.53;4953272;28;20168;-47
2022/08/29 08:37:41;;;;;;;10.05;6.63;;;20.80;99.90;;;20.83;83.38;97611.34;4944269;28;20621;-46
2022/08/29 08:40:31;;;;;;;11.35;5.40;;;21.00;99.90;;;20.92;82.43;97599.91;4944190;28;20118;-45
2022/08/29 08:43:00;;;;;;;9.73;5.78;;;21.10;99.90;;;20.94;81.35;97603.31;4952008;28;20030;-45
2022/08/29 08:45:41;;;;;;;10.27;6.10;;;21.10;99.90;;;21.05;81.21;97599.81;4957092;28;20031;-45
2022/08/29 08:48:23;;;;;;;8.23;5.07;;;21.20;99.90;;;21.13;80.84;97602.78;4944052;28;20027;-44
2022/08/29 08:51:20;;;;;;;9.05;5.93;;;21.30;99.90;;;21.15;80.99;97607.03;4931647;28;20531;-44
2022/08/29 08:54:06;;;;;;;7.80;5.40;;;21.30;99.90;;;21.27;80.87;97605.25;4960555;28;20465;-45
2022/08/29 08:57:00;;;;;;;8.18;5.95;;;21.40;99.90;;;21.34;79.93;97605.66;4939320;28;20070;-44
2022/08/29 08:59:45;;;;;;;6.22;4.28;;;21.50;99.90;;;21.47;80.30;97603.75;4930973;28;20682;-47
2022/08/29 09:02:30;;;;;;;6.20;4.30;;;21.50;99.90;;;21.61;78.49;97602.66;4937586;28;20124;-45
2022/08/29 09:05:44;;;;;;;12.93;6.20;;;21.70;99.90;;;21.74;76.75;97605.22;4958202;28;20541;-46
2022/08/29 09:08:21;;;;;;;7.60;5.05;;;21.80;99.90;;;21.85;75.40;97607.91;4946889;28;20027;-44
2022/08/29 09:11:03;;;;;;;7.57;5.30;;;22.00;99.90;;;21.96;75.25;97604.38;4944628;28;20031;-44
2022/08/29 09:14:09;;;;;;;7.65;4.70;;;22.10;99.90;;;22.10;75.30;97605.94;4948109;28;20521;-44
2022/08/29 09:16:41;;;;;;;6.10;4.45;;;22.20;99.90;;;22.23;78.64;97603.97;4959079;28;20031;-47
2022/08/29 09:19:10;;;;;;;;;;;22.30;99.90;;;22.37;77.95;97610.09;4962347;28;20505;-46
2022/08/29 09:21:54;;;;;;;7.05;4.70;;;22.50;99.90;;;22.49;74.64;97614.47;4961656;28;20358;-46
2022/08/29 09:24:43;;;;;;;9.13;5.53;;;22.50;99.90;;;22.55;73.76;97608.56;4962110;28;20045;-45
2022/08/29 09:27:35;;;;;;;6.15;4.47;;;22.70;99.90;;;22.60;75.88;97606.34;4963715;28;20325;-46
2022/08/29 09:30:23;;;;;;;7.25;4.93;;;22.70;99.90;;;22.67;75.13;97601.34;4957204;28;20039;-46
2022/08/29 09:33:13;;;;;;;8.23;4.90;;;22.80;99.90;;;22.80;74.79;97601.16;4942279;28;20038;-45
2022/08/29 09:35:51;;;;;;;7.40;4.65;;;22.90;99.90;;;22.88;73.43;97604.06;4963785;28;20042;-45
2022/08/29 09:38:16;;;;;;;9.00;5.05;;;23.00;99.90;;;22.96;72.64;97604.25;4946665;28;20046;-45
2022/08/29 09:41:09;;;;;;;7.05;4.50;;;23.10;99.90;;;23.08;73.03;97604.22;4957494;28;20046;-45
2022/08/29 09:43:38;;;;;;;5.70;4.50;;;23.10;99.90;;;23.11;73.02;97596.75;4936051;28;20065;-47
2022/08/29 09:46:09;;;;;;;6.15;4.35;;;23.20;99.90;;;23.16;72.66;97605.28;4961101;28;20039;-47
2022/08/29 09:48:38;;;;;;;8.85;5.18;;;23.30;99.90;;;23.14;69.35;97603.72;4960846;28;20053;-47
2022/08/29 09:51:30;;;;;;;6.60;4.15;;;23.30;99.90;;;23.21;69.72;97600.38;4937409;28;20927;-44
2022/08/29 09:54:27;;;;;;;10.48;4.43;;;23.30;99.90;;;23.33;70.17;97601.19;4959247;28;20550;-46
2022/08/29 09:57:21;;;;;;;8.95;5.63;;;23.40;99.90;;;23.26;67.80;97602.69;4964429;28;20892;-46
2022/08/29 10:00:17;;;;;;;13.45;6.45;;;23.50;99.90;;;23.22;66.69;97595.84;4969469;28;20084;-46
2022/08/29 10:02:44;;;;;;;7.82;5.35;;;23.50;99.90;;;23.34;66.31;97596.63;4956783;28;21186;-48
2022/08/29 10:05:39;;;;;;;7.63;5.10;;;23.50;99.90;;;23.29;64.71;97602.41;4962613;28;20133;-46
2022/08/29 10:08:22;;;;;;;6.20;4.55;;;23.50;99.90;;;23.34;62.95;97599.31;4959352;28;20026;-44
2022/08/29 10:10:58;;;;;;;9.93;5.20;;;23.50;99.90;;;23.27;63.95;97598.16;4958407;28;20023;-45
2022/08/29 10:13:46;;;;;;;6.03;4.32;;;23.50;99.90;;;23.37;64.40;97596.38;4962460;28;20041;-46
2022/08/29 10:16:23;;;;;;;6.40;4.30;;;23.50;99.90;;;23.49;63.73;97606.09;4940572;28;21379;-47
2022/08/29 10:18:57;;;;;;;7.28;4.95;;;23.60;99.90;;;23.54;61.24;97608.38;4943696;28;20138;-46
2022/08/29 10:21:37;;;;;;;6.85;5.18;;;23.70;99.90;;;23.55;62.55;97602.84;4948974;28;20126;-48
2022/08/29 10:24:27;;;;;;;6.93;4.47;;;23.70;99.90;;;23.46;62.66;97590.19;4959342;28;21033;-45
2022/08/29 10:27:30;;;;;;;5.15;3.80;;;23.70;99.90;;;23.60;59.60;97602.47;4958713;28;21783;-45
2022/08/29 10:30:16;;;;;;;6.97;4.22;;;23.80;99.90;;;23.59;58.76;97606.13;4962055;28;20031;-45
2022/08/29 10:33:03;;;;;;;4.65;3.70;;;23.80;99.90;;;23.59;58.44;97598.91;4958280;28;20035;-45
2022/08/29 10:35:41;;;;;;;7.38;4.47;;;23.80;99.90;;;23.70;59.62;97606.03;4959419;28;20553;-45